Terminal Aerodrome Forecast
Issued by NWS Wilmington, OH

Home | Current Version | Previous Version | Text Only | Print | Product List | Glossary On
Versions: 1 2 3 4 5 6 7 8 9 10 11 12 13 14 15 16 17 18 19 20 21 22 23 24 25 26
000
FTUS41 KILN 011700
TAFCVG
TAF
KCVG 011734Z 0118/0224 VRB04KT P6SM SCT070
     FM012300 11004KT P6SM SKC
     FM021100 15007KT P6SM SCT050 BKN120
     FM021500 18008G16KT P6SM SCT050 BKN100=

USA.gov is the U.S. government's official web portal to all federal, state and local government web resources and services.